createdAt,value
2018-06-23T00:00:19.410Z,2.20
2018-06-23T00:01:19.405Z,1.90
2018-06-23T00:02:19.397Z,2.00
2018-06-23T00:03:19.411Z,2.10
2018-06-23T00:04:19.369Z,2.20
2018-06-23T00:05:19.357Z,2.30
2018-06-23T00:06:19.338Z,2.20
2018-06-23T00:07:19.349Z,2.50
2018-06-23T00:08:19.319Z,2.00
2018-06-23T00:09:19.305Z,2.40
2018-06-23T00:10:19.302Z,2.20
2018-06-23T00:11:19.291Z,2.50
2018-06-23T00:12:19.276Z,2.50
2018-06-23T00:13:19.282Z,2.30
2018-06-23T00:14:19.251Z,2.30
2018-06-23T00:15:19.241Z,2.30
2018-06-23T00:16:19.232Z,2.00
2018-06-23T00:17:19.233Z,1.90
2018-06-23T00:18:19.252Z,2.40
2018-06-23T00:19:19.202Z,2.00
2018-06-23T00:20:19.189Z,2.50
2018-06-23T00:21:19.174Z,2.20
2018-06-23T00:22:19.176Z,2.50
2018-06-23T00:23:19.170Z,2.00
2018-06-23T00:24:19.146Z,2.10
2018-06-23T00:25:19.141Z,1.90
2018-06-23T00:26:19.120Z,2.30
2018-06-23T00:27:19.119Z,2.50
2018-06-23T00:28:19.120Z,2.20
2018-06-23T00:29:19.110Z,2.30
2018-06-23T00:30:19.086Z,2.70
2018-06-23T00:31:19.070Z,2.10
2018-06-23T00:32:19.058Z,2.50
2018-06-23T00:33:19.053Z,2.20
2018-06-23T00:34:19.043Z,2.50
2018-06-23T00:35:19.027Z,2.20
2018-06-23T00:36:19.015Z,1.90
2018-06-23T00:37:19.008Z,2.30
2018-06-23T00:38:18.992Z,2.50
2018-06-23T00:39:18.990Z,2.20
2018-06-23T00:40:18.968Z,2.60
2018-06-23T00:41:18.962Z,2.30
2018-06-23T00:42:18.953Z,2.30
2018-06-23T00:43:18.939Z,2.30
2018-06-23T00:44:18.945Z,2.10
2018-06-23T00:45:18.919Z,2.20
2018-06-23T00:46:18.902Z,2.70
2018-06-23T00:47:18.893Z,2.60
2018-06-23T00:48:18.882Z,2.20
2018-06-23T00:49:18.868Z,2.60
2018-06-23T00:50:18.880Z,2.30
2018-06-23T00:51:18.854Z,2.50
2018-06-23T00:52:18.840Z,2.40
2018-06-23T00:53:18.827Z,2.20
2018-06-23T00:54:18.821Z,2.40
2018-06-23T00:55:18.824Z,2.30
2018-06-23T00:56:18.798Z,2.40
2018-06-23T00:57:18.790Z,2.20
2018-06-23T00:58:18.773Z,2.70
2018-06-23T00:59:18.768Z,2.50
2018-06-23T01:00:18.750Z,2.50
2018-06-23T01:01:18.746Z,2.60
2018-06-23T01:02:18.738Z,2.70
2018-06-23T01:03:18.721Z,2.30
2018-06-23T01:04:18.715Z,2.40
2018-06-23T01:05:18.707Z,2.40
2018-06-23T01:06:18.696Z,2.60
2018-06-23T01:07:18.675Z,2.50
2018-06-23T01:08:18.670Z,2.60
2018-06-23T01:09:18.662Z,2.30
2018-06-23T01:10:18.639Z,2.10
2018-06-23T01:11:18.642Z,2.20
2018-06-23T01:12:18.624Z,2.80
2018-06-23T01:13:18.606Z,2.50
2018-06-23T01:14:18.602Z,2.50
2018-06-23T01:15:18.592Z,2.50
2018-06-23T01:16:18.590Z,2.30
2018-06-23T01:17:18.571Z,2.30
2018-06-23T01:18:18.555Z,2.50
2018-06-23T01:19:18.544Z,2.50
2018-06-23T01:20:18.534Z,2.70
2018-06-23T01:21:18.530Z,2.60
2018-06-23T01:22:18.518Z,3.10
2018-06-23T01:23:18.504Z,2.60
2018-06-23T01:24:18.495Z,2.70
2018-06-23T01:25:18.478Z,2.00
2018-06-23T01:26:18.484Z,2.60
2018-06-23T01:27:18.461Z,2.20
2018-06-23T01:28:18.452Z,2.90
2018-06-23T01:29:18.440Z,2.20
2018-06-23T01:30:18.421Z,2.80
2018-06-23T01:31:18.430Z,2.30
2018-06-23T01:32:18.408Z,2.20
2018-06-23T01:33:18.395Z,2.50
2018-06-23T01:34:18.385Z,2.60
2018-06-23T01:35:18.377Z,2.80
2018-06-23T01:36:18.362Z,2.70
2018-06-23T01:37:18.366Z,2.40
2018-06-23T01:38:18.335Z,2.50
2018-06-23T01:39:18.325Z,3.00
2018-06-23T01:40:18.318Z,2.50
2018-06-23T01:41:18.312Z,2.50
2018-06-23T01:42:18.306Z,2.50
2018-06-23T01:43:18.284Z,2.90
2018-06-23T01:44:18.276Z,2.50
2018-06-23T01:45:18.258Z,3.00
2018-06-23T01:46:18.256Z,2.50
2018-06-23T01:47:18.243Z,2.60
2018-06-23T01:48:18.245Z,2.30
2018-06-23T01:49:18.224Z,2.50
2018-06-23T01:50:18.203Z,2.40
2018-06-23T01:51:18.196Z,2.30
2018-06-23T01:52:18.192Z,2.50
2018-06-23T01:53:18.187Z,2.60
2018-06-23T01:54:18.166Z,2.40
2018-06-23T01:55:18.153Z,2.40
2018-06-23T01:56:18.141Z,2.90
2018-06-23T01:57:18.134Z,2.30
2018-06-23T01:58:18.130Z,2.50
2018-06-23T01:59:18.122Z,2.90
2018-06-23T02:00:18.099Z,2.40
2018-06-23T02:01:18.089Z,2.60
2018-06-23T02:02:18.071Z,2.40
2018-06-23T02:03:18.069Z,2.80
2018-06-23T02:04:18.063Z,2.80
2018-06-23T02:05:18.039Z,2.80
2018-06-23T02:06:18.046Z,2.40
2018-06-23T02:07:18.023Z,2.80
2018-06-23T02:08:18.016Z,2.60
2018-06-23T02:09:18.022Z,2.50
2018-06-23T02:10:17.984Z,2.80
2018-06-23T02:11:17.975Z,3.00
2018-06-23T02:12:17.973Z,2.90
2018-06-23T02:13:17.967Z,2.80
2018-06-23T02:14:17.944Z,2.80
2018-06-23T02:15:17.950Z,2.80
2018-06-23T02:16:17.923Z,2.80
2018-06-23T02:17:17.910Z,2.60
2018-06-23T02:18:17.905Z,2.20
2018-06-23T02:19:17.891Z,3.00
2018-06-23T02:20:17.914Z,2.70
2018-06-23T02:21:17.875Z,2.70
2018-06-23T02:22:17.851Z,2.80
2018-06-23T02:23:17.847Z,2.50
2018-06-23T02:24:17.836Z,2.60
2018-06-23T02:25:17.819Z,3.00
2018-06-23T02:26:17.830Z,2.90
2018-06-23T02:27:17.803Z,2.80
2018-06-23T02:28:17.788Z,2.70
2018-06-23T02:29:17.775Z,2.40
2018-06-23T02:30:17.774Z,2.90
2018-06-23T02:31:17.771Z,2.80
2018-06-23T02:32:17.751Z,2.70
2018-06-23T02:33:17.741Z,3.00
2018-06-23T02:34:17.720Z,2.80
2018-06-23T02:35:17.715Z,2.80
2018-06-23T02:36:17.718Z,3.30
2018-06-23T02:37:17.688Z,2.70
2018-06-23T02:38:17.696Z,2.70
2018-06-23T02:39:17.674Z,2.90
2018-06-23T02:40:17.663Z,3.30
2018-06-23T02:41:17.671Z,2.80
2018-06-23T02:42:17.637Z,3.30
2018-06-23T02:43:17.626Z,3.00
2018-06-23T02:44:17.619Z,3.10
2018-06-23T02:45:17.610Z,2.90
2018-06-23T02:46:17.590Z,3.10
2018-06-23T02:47:17.595Z,3.30
2018-06-23T02:48:17.576Z,3.30
2018-06-23T02:49:17.557Z,2.80
2018-06-23T02:50:17.556Z,3.10
2018-06-23T02:51:17.541Z,3.20
2018-06-23T02:52:17.548Z,3.20
2018-06-23T02:53:17.524Z,3.00
2018-06-23T02:54:17.506Z,3.20
2018-06-23T02:55:17.494Z,2.90
2018-06-23T02:56:17.485Z,3.10
2018-06-23T02:57:17.469Z,2.90
2018-06-23T02:58:17.484Z,3.20
2018-06-23T02:59:17.456Z,2.80
2018-06-23T03:00:17.442Z,2.90
2018-06-23T03:01:17.472Z,3.00
2018-06-23T03:02:17.472Z,2.90
2018-06-23T03:03:17.410Z,3.30
2018-06-23T03:04:17.462Z,3.00
2018-06-23T03:05:17.446Z,3.10
2018-06-23T03:06:17.374Z,3.50
2018-06-23T03:07:17.366Z,3.20
2018-06-23T03:08:17.398Z,2.70
2018-06-23T03:09:17.397Z,3.00
2018-06-23T03:10:17.343Z,2.90
2018-06-23T03:11:17.322Z,2.60
2018-06-23T03:12:17.313Z,3.00
2018-06-23T03:13:17.303Z,3.30
2018-06-23T03:14:17.298Z,3.00
2018-06-23T03:15:17.277Z,3.00
2018-06-23T03:16:17.269Z,3.00
2018-06-23T03:17:17.259Z,2.70
2018-06-23T03:18:17.247Z,3.20
2018-06-23T03:19:17.233Z,3.00
2018-06-23T03:20:17.246Z,3.60
2018-06-23T03:21:17.210Z,2.90
2018-06-23T03:22:17.208Z,3.30
2018-06-23T03:23:17.194Z,2.80
2018-06-23T03:24:17.181Z,3.30
2018-06-23T03:25:17.172Z,3.10
2018-06-23T03:26:17.169Z,3.20
2018-06-23T03:27:17.145Z,2.80
2018-06-23T03:28:17.137Z,3.10
2018-06-23T03:29:17.122Z,3.20
2018-06-23T03:30:17.117Z,3.00
2018-06-23T03:31:17.118Z,3.30
2018-06-23T03:32:17.093Z,2.70
2018-06-23T03:33:17.076Z,3.20
2018-06-23T03:34:17.073Z,3.50
2018-06-23T03:35:17.060Z,3.20
2018-06-23T03:36:17.065Z,2.40
2018-06-23T03:37:17.041Z,3.20
2018-06-23T03:38:17.025Z,3.00
2018-06-23T03:39:17.019Z,3.40
2018-06-23T03:40:17.002Z,3.20
2018-06-23T03:41:17.001Z,3.10
2018-06-23T03:42:16.985Z,3.10
2018-06-23T03:43:16.974Z,3.40
2018-06-23T03:44:16.961Z,3.30
2018-06-23T03:45:16.953Z,3.20
2018-06-23T03:46:16.957Z,2.80
2018-06-23T03:47:16.925Z,2.90
2018-06-23T03:48:16.919Z,3.00
2018-06-23T03:49:16.913Z,3.10
2018-06-23T03:50:16.891Z,2.90
2018-06-23T03:51:16.902Z,3.30
2018-06-23T03:52:16.872Z,2.70
2018-06-23T03:53:16.857Z,2.40
2018-06-23T03:54:16.854Z,3.70
2018-06-23T03:55:16.850Z,3.10
2018-06-23T03:56:16.833Z,3.40
2018-06-23T03:57:16.832Z,3.10
2018-06-23T03:58:16.808Z,3.40
2018-06-23T03:59:16.791Z,3.10
2018-06-23T04:00:16.780Z,3.40
2018-06-23T04:01:16.779Z,3.30
2018-06-23T04:02:16.782Z,3.20
2018-06-23T04:03:16.756Z,3.10
2018-06-23T04:04:16.737Z,3.30
2018-06-23T04:05:16.730Z,3.10
2018-06-23T04:06:16.721Z,3.20
2018-06-23T04:07:16.721Z,3.10
2018-06-23T04:08:16.714Z,3.20
2018-06-23T04:09:16.695Z,3.20
2018-06-23T04:10:16.675Z,3.10
2018-06-23T04:11:16.663Z,3.00
2018-06-23T04:12:16.654Z,3.10
2018-06-23T04:13:16.656Z,3.00
2018-06-23T04:14:16.639Z,3.20
2018-06-23T04:15:16.626Z,3.10
2018-06-23T04:16:16.618Z,3.40
2018-06-23T04:17:16.602Z,3.40
2018-06-23T04:18:16.606Z,3.00
2018-06-23T04:19:16.572Z,3.00
2018-06-23T04:20:16.572Z,3.30
2018-06-23T04:21:16.569Z,3.10
2018-06-23T04:22:16.543Z,3.40
2018-06-23T04:23:16.530Z,2.70
2018-06-23T04:24:16.529Z,3.50
2018-06-23T04:25:16.513Z,3.90
2018-06-23T04:26:16.506Z,3.10
2018-06-23T04:27:16.495Z,3.40
2018-06-23T04:28:16.484Z,3.50
2018-06-23T04:29:16.532Z,3.10
2018-06-23T04:30:16.468Z,3.40
2018-06-23T04:31:16.465Z,3.30
2018-06-23T04:32:16.433Z,3.40
2018-06-23T04:33:16.425Z,3.20
2018-06-23T04:34:16.426Z,3.20
2018-06-23T04:35:16.405Z,3.20
2018-06-23T04:36:16.391Z,2.70
2018-06-23T04:37:16.397Z,3.40
2018-06-23T04:38:16.370Z,3.50
2018-06-23T04:39:16.382Z,2.80
2018-06-23T04:40:16.352Z,3.20
2018-06-23T04:41:16.340Z,3.20
2018-06-23T04:42:16.325Z,3.00
2018-06-23T04:43:16.311Z,2.90
2018-06-23T04:44:16.299Z,3.70
2018-06-23T04:45:16.310Z,3.10
2018-06-23T04:46:16.286Z,3.20
2018-06-23T04:47:16.278Z,3.40
2018-06-23T04:48:16.267Z,3.40
2018-06-23T04:49:16.251Z,2.80
2018-06-23T04:50:16.253Z,3.20
2018-06-23T04:51:16.229Z,3.00
2018-06-23T04:52:16.221Z,3.10
2018-06-23T04:53:16.209Z,3.50
2018-06-23T04:54:16.199Z,2.70
2018-06-23T04:55:16.179Z,3.20
2018-06-23T04:56:16.180Z,3.20
2018-06-23T04:57:16.164Z,3.00
2018-06-23T04:58:16.156Z,3.00
2018-06-23T04:59:16.145Z,2.90
2018-06-23T05:00:16.140Z,3.40
2018-06-23T05:01:16.137Z,3.10
2018-06-23T05:02:16.108Z,2.90
2018-06-23T05:03:16.092Z,3.20
2018-06-23T05:04:16.088Z,3.40
2018-06-23T05:05:16.073Z,3.00
2018-06-23T05:06:16.082Z,3.40
2018-06-23T05:07:16.058Z,3.70
2018-06-23T05:08:16.037Z,3.90
2018-06-23T05:09:16.029Z,3.40
2018-06-23T05:10:16.021Z,3.20
2018-06-23T05:11:16.016Z,3.00
2018-06-23T05:12:16.049Z,3.10
2018-06-23T05:13:15.986Z,3.20
2018-06-23T05:14:15.973Z,3.30
2018-06-23T05:15:15.961Z,3.50
2018-06-23T05:16:15.948Z,2.90
2018-06-23T05:17:15.947Z,3.70
2018-06-23T05:18:15.944Z,3.20
2018-06-23T05:19:15.926Z,3.10
2018-06-23T05:20:15.971Z,3.10
2018-06-23T05:21:15.899Z,3.20
2018-06-23T05:22:15.885Z,3.10
2018-06-23T05:23:15.885Z,3.10
2018-06-23T05:24:15.874Z,2.80
2018-06-23T05:25:15.855Z,2.70
2018-06-23T05:26:15.847Z,3.10
2018-06-23T05:27:15.830Z,2.90
2018-06-23T05:28:15.832Z,3.10
2018-06-23T05:29:15.812Z,3.40
2018-06-23T05:30:15.804Z,3.40
2018-06-23T05:31:15.796Z,3.20
2018-06-23T05:32:15.782Z,3.40
2018-06-23T05:33:15.786Z,2.80
2018-06-23T05:34:15.759Z,3.00
2018-06-23T05:35:15.744Z,2.80
2018-06-23T05:36:15.732Z,3.70
2018-06-23T05:37:15.720Z,3.10
2018-06-23T05:38:15.712Z,2.80
2018-06-23T05:39:15.721Z,3.00
2018-06-23T05:40:15.684Z,3.00
2018-06-23T05:41:15.675Z,2.80
2018-06-23T05:42:15.667Z,2.90
2018-06-23T05:43:15.663Z,3.20
2018-06-23T05:44:15.648Z,3.10
2018-06-23T05:45:15.647Z,3.50
2018-06-23T05:46:15.623Z,3.20
2018-06-23T05:47:15.610Z,3.20
2018-06-23T05:48:15.597Z,3.10
2018-06-23T05:49:15.601Z,3.10
2018-06-23T05:50:15.583Z,3.20
2018-06-23T05:51:15.647Z,2.90
2018-06-23T05:52:15.559Z,2.70
2018-06-23T05:53:15.543Z,3.00
2018-06-23T05:54:15.532Z,3.20
2018-06-23T05:55:15.543Z,2.70
2018-06-23T05:56:15.516Z,2.90
2018-06-23T05:57:15.512Z,3.70
2018-06-23T05:58:15.527Z,3.10
2018-06-23T05:59:15.471Z,3.00
2018-06-23T06:00:15.476Z,2.50
2018-06-23T06:01:15.453Z,3.20
2018-06-23T06:02:15.445Z,2.60
2018-06-23T06:03:15.438Z,2.80
2018-06-23T06:04:15.425Z,3.00
2018-06-23T06:05:15.412Z,3.20
2018-06-23T06:06:15.411Z,3.10
2018-06-23T06:07:15.382Z,3.20
2018-06-23T06:08:15.373Z,2.50
2018-06-23T06:09:15.361Z,2.80
2018-06-23T06:10:15.354Z,3.10
2018-06-23T06:11:15.344Z,2.90
2018-06-23T06:12:15.337Z,2.80
2018-06-23T06:13:15.330Z,2.80
2018-06-23T06:14:15.311Z,3.10
2018-06-23T06:15:15.301Z,3.00
2018-06-23T06:16:15.290Z,2.60
2018-06-23T06:17:15.292Z,2.90
2018-06-23T06:18:15.262Z,3.00
2018-06-23T06:19:15.251Z,3.10
2018-06-23T06:20:15.242Z,2.50
2018-06-23T06:21:15.237Z,2.80
2018-06-23T06:22:15.225Z,2.70
2018-06-23T06:23:15.228Z,2.90
2018-06-23T06:24:15.202Z,3.00
2018-06-23T06:25:15.190Z,2.70
2018-06-23T06:26:15.177Z,2.60
2018-06-23T06:27:15.162Z,2.70
2018-06-23T06:28:15.170Z,2.70
2018-06-23T06:29:15.144Z,2.80
2018-06-23T06:30:15.135Z,2.70
2018-06-23T06:31:15.124Z,2.50
2018-06-23T06:32:15.106Z,2.70
2018-06-23T06:33:15.114Z,3.00
2018-06-23T06:34:15.090Z,2.70
2018-06-23T06:35:15.084Z,2.40
2018-06-23T06:36:15.074Z,2.60
2018-06-23T06:37:15.058Z,2.50
2018-06-23T06:38:15.043Z,3.10
2018-06-23T06:39:15.052Z,2.90
2018-06-23T06:40:15.020Z,2.70
2018-06-23T06:41:15.016Z,2.50
2018-06-23T06:42:15.002Z,2.00
2018-06-23T06:43:14.998Z,3.10
2018-06-23T06:44:14.991Z,2.90
2018-06-23T06:45:14.967Z,2.60
2018-06-23T06:46:14.958Z,2.30
2018-06-23T06:47:14.952Z,2.40
2018-06-23T06:48:15.119Z,2.00
2018-06-23T06:49:14.947Z,2.40
2018-06-23T06:50:14.910Z,2.30
2018-06-23T06:51:14.903Z,2.00
2018-06-23T06:52:14.887Z,2.00
2018-06-23T06:53:14.877Z,2.30
2018-06-23T06:54:14.872Z,2.00
2018-06-23T06:55:14.876Z,2.20
2018-06-23T06:56:14.852Z,2.30
2018-06-23T06:57:14.894Z,2.80
2018-06-23T06:58:14.829Z,2.40
2018-06-23T06:59:14.808Z,2.40
2018-06-23T07:00:14.822Z,2.10
2018-06-23T07:01:14.797Z,2.20
2018-06-23T07:02:14.789Z,2.40
2018-06-23T07:03:14.770Z,2.40
2018-06-23T07:04:14.754Z,2.00
2018-06-23T07:05:14.759Z,2.30
2018-06-23T07:06:14.748Z,2.20
2018-06-23T07:07:14.731Z,2.30
2018-06-23T07:08:14.720Z,2.10
2018-06-23T07:09:14.706Z,2.80
2018-06-23T07:10:14.710Z,2.40
2018-06-23T07:11:14.681Z,2.50
2018-06-23T07:12:14.667Z,2.30
2018-06-23T07:13:14.661Z,2.30
2018-06-23T07:14:14.656Z,2.50
2018-06-23T07:15:14.644Z,2.40
2018-06-23T07:16:14.643Z,2.40
2018-06-23T07:17:14.616Z,2.50
2018-06-23T07:18:14.606Z,2.10
2018-06-23T07:19:14.599Z,2.50
2018-06-23T07:20:14.592Z,2.60
2018-06-23T07:21:14.591Z,2.10
2018-06-23T07:22:14.563Z,2.50
2018-06-23T07:23:14.555Z,2.20
2018-06-23T07:24:14.612Z,2.30
2018-06-23T07:25:14.528Z,2.70
2018-06-23T07:26:14.519Z,2.30
2018-06-23T07:27:14.526Z,2.30
2018-06-23T07:28:14.560Z,2.30
2018-06-23T07:29:14.487Z,2.40
2018-06-23T07:30:14.476Z,2.40
2018-06-23T07:31:14.460Z,2.30
2018-06-23T07:32:14.475Z,3.10
2018-06-23T07:33:14.443Z,2.60
2018-06-23T07:34:14.464Z,2.50
2018-06-23T07:35:14.558Z,2.40
2018-06-23T07:36:14.403Z,2.10
2018-06-23T07:37:14.401Z,2.50
2018-06-23T07:38:14.402Z,2.30
2018-06-23T07:39:14.381Z,2.00
2018-06-23T07:40:14.368Z,2.20
2018-06-23T08:14:52.532Z,2.10
2018-06-23T08:15:52.511Z,2.00
2018-06-23T08:16:52.511Z,2.00
2018-06-23T08:17:52.496Z,2.10
2018-06-23T08:18:52.480Z,2.30
2018-06-23T08:19:52.476Z,2.00
2018-06-23T08:20:52.477Z,2.00
2018-06-23T08:21:52.453Z,1.90
2018-06-23T08:22:52.455Z,2.00
2018-06-23T08:23:52.429Z,2.00
2018-06-23T08:24:52.434Z,2.00
2018-06-23T08:25:52.400Z,2.10
2018-06-23T08:26:52.390Z,2.20
2018-06-23T08:27:52.381Z,1.90
2018-06-23T08:28:52.460Z,2.00
2018-06-23T08:29:52.377Z,2.00
2018-06-23T08:30:52.351Z,2.10
2018-06-23T08:31:52.406Z,2.10
2018-06-23T08:32:52.352Z,2.20
2018-06-23T08:33:52.314Z,2.00
2018-06-23T08:34:52.308Z,1.80
2018-06-23T08:35:52.295Z,1.60
2018-06-23T08:36:52.295Z,1.90
2018-06-23T08:37:52.308Z,2.10
2018-06-23T08:38:52.269Z,1.70
2018-06-23T08:39:52.252Z,1.60
2018-06-23T08:40:52.235Z,2.00
2018-06-23T08:41:52.241Z,1.40
2018-06-23T08:42:52.228Z,1.90
2018-06-23T08:43:52.259Z,1.80
2018-06-23T08:44:52.212Z,2.20
2018-06-23T08:45:52.186Z,2.30
2018-06-23T08:46:52.180Z,2.00
2018-06-23T08:47:52.210Z,2.10
2018-06-23T08:48:52.161Z,1.80
2018-06-23T08:49:52.156Z,1.80
2018-06-23T08:50:52.136Z,1.90
2018-06-23T08:51:52.123Z,1.90
2018-06-23T08:52:52.103Z,2.10
2018-06-23T08:53:52.131Z,2.30
2018-06-23T08:54:52.106Z,2.50
2018-06-23T08:55:52.078Z,1.80
2018-06-23T08:56:52.151Z,2.10
2018-06-23T08:57:52.050Z,2.20
2018-06-23T08:58:52.045Z,2.10
2018-06-23T08:59:52.042Z,1.80
2018-06-23T09:00:52.038Z,2.00
2018-06-23T09:01:52.051Z,1.80
2018-06-23T09:02:52.040Z,2.00
2018-06-23T09:03:52.000Z,2.10
2018-06-23T09:04:52.014Z,1.70
2018-06-23T09:05:51.971Z,2.10
2018-06-23T09:06:51.959Z,2.30
2018-06-23T09:07:51.952Z,2.00
2018-06-23T09:08:51.941Z,1.90
2018-06-23T09:09:51.917Z,1.70
2018-06-23T09:10:51.937Z,2.00
2018-06-23T09:11:51.897Z,1.80
2018-06-23T09:12:51.884Z,1.70
2018-06-23T09:13:51.911Z,1.90
2018-06-23T09:14:51.983Z,1.70
2018-06-23T09:15:51.861Z,1.60
2018-06-23T09:16:51.916Z,1.90
2018-06-23T09:17:51.832Z,1.60
2018-06-23T09:18:51.823Z,1.90
2018-06-23T09:19:51.831Z,1.70
2018-06-23T09:20:51.796Z,1.80
2018-06-23T09:21:51.811Z,1.70
2018-06-23T09:22:51.799Z,1.70
2018-06-23T09:23:51.769Z,1.70
2018-06-23T09:24:51.767Z,1.50
2018-06-23T09:25:51.788Z,1.50
2018-06-23T09:26:51.759Z,1.20
2018-06-23T09:27:51.727Z,1.80
2018-06-23T09:28:51.718Z,1.70
2018-06-23T09:29:51.697Z,1.70
2018-06-23T09:30:51.691Z,1.70
2018-06-23T09:31:51.695Z,1.60
2018-06-23T09:32:51.676Z,1.90
2018-06-23T09:33:51.663Z,1.80
2018-06-23T09:34:51.649Z,2.00
2018-06-23T09:35:51.648Z,2.20
2018-06-23T09:36:51.632Z,2.10
2018-06-23T09:37:51.640Z,2.20
2018-06-23T09:38:51.608Z,2.20
2018-06-23T09:39:51.598Z,2.00
2018-06-23T09:40:51.597Z,2.00
2018-06-23T09:41:51.575Z,2.10
2018-06-23T09:42:51.570Z,2.10
2018-06-23T09:43:51.558Z,2.00
2018-06-23T09:44:51.535Z,2.10
2018-06-23T09:45:51.554Z,2.00
2018-06-23T09:46:51.521Z,2.30
2018-06-23T09:47:51.513Z,2.30
2018-06-23T09:48:51.518Z,2.00
2018-06-23T09:49:51.547Z,2.60
2018-06-23T09:50:51.488Z,2.20
2018-06-23T09:51:51.462Z,2.20
2018-06-23T09:52:51.458Z,2.30
2018-06-23T09:53:51.468Z,2.20
2018-06-23T09:54:51.466Z,2.40
2018-06-23T09:55:51.430Z,2.30
2018-06-23T09:56:51.407Z,2.50
2018-06-23T09:57:51.400Z,2.30
2018-06-23T09:58:51.430Z,2.40
2018-06-23T09:59:51.413Z,2.60
2018-06-23T10:00:51.377Z,2.30
2018-06-23T10:01:51.386Z,2.60
2018-06-23T10:02:51.353Z,2.80
2018-06-23T10:03:51.331Z,2.70
2018-06-23T10:04:51.382Z,2.30
2018-06-23T10:05:51.328Z,2.40
2018-06-23T10:06:51.308Z,2.30
2018-06-23T10:07:51.301Z,2.50
2018-06-23T10:08:51.284Z,2.10
2018-06-23T10:09:51.278Z,2.20
2018-06-23T10:10:51.355Z,2.40
2018-06-23T10:11:51.254Z,2.20
2018-06-23T10:12:51.242Z,2.20
2018-06-23T10:13:51.233Z,2.00
2018-06-23T10:14:51.220Z,2.30
2018-06-23T10:15:51.226Z,2.00
2018-06-23T10:16:51.201Z,2.30
2018-06-23T10:17:51.193Z,2.30
2018-06-23T10:18:51.204Z,2.20
2018-06-23T10:19:51.181Z,2.20
2018-06-23T10:20:51.157Z,2.10
2018-06-23T10:21:51.162Z,2.00
2018-06-23T10:22:51.133Z,1.90
2018-06-23T10:23:51.120Z,1.80
2018-06-23T10:24:51.113Z,1.90
2018-06-23T10:25:51.112Z,1.90
2018-06-23T10:26:51.120Z,2.10
2018-06-23T10:27:51.081Z,2.40
2018-06-23T10:28:51.128Z,2.00
2018-06-23T10:29:51.062Z,2.00
2018-06-23T10:30:51.057Z,1.90
2018-06-23T10:31:51.045Z,1.90
2018-06-23T10:32:51.049Z,1.90
2018-06-23T10:33:51.015Z,2.00
2018-06-23T10:34:51.056Z,1.90
2018-06-23T10:35:51.004Z,1.90
2018-06-23T10:36:50.988Z,2.10
2018-06-23T10:37:50.991Z,2.10
2018-06-23T10:38:50.969Z,1.90
2018-06-23T10:39:50.967Z,1.80
2018-06-23T10:40:50.957Z,1.70
2018-06-23T10:41:50.930Z,1.90
2018-06-23T10:42:50.923Z,1.90
2018-06-23T10:43:50.931Z,1.80
2018-06-23T10:44:50.906Z,1.60
2018-06-23T10:45:50.889Z,2.10
2018-06-23T10:46:50.875Z,1.90
2018-06-23T10:47:50.926Z,1.60
2018-06-23T10:48:50.864Z,2.30
2018-06-23T10:49:50.848Z,2.10
2018-06-23T10:50:50.837Z,2.00
2018-06-23T10:51:50.825Z,2.30
2018-06-23T10:52:50.818Z,2.00
2018-06-23T10:53:50.811Z,2.20
2018-06-23T10:54:50.784Z,2.40
2018-06-23T10:55:50.777Z,2.30
2018-06-23T10:56:50.789Z,2.60
2018-06-23T10:57:50.771Z,2.10
2018-06-23T10:58:50.747Z,2.20
2018-06-23T10:59:50.749Z,1.90
2018-06-23T11:00:50.722Z,2.40
2018-06-23T11:01:50.721Z,2.50
2018-06-23T11:02:50.710Z,2.20
2018-06-23T11:03:50.739Z,2.60
2018-06-23T11:04:50.835Z,2.20
2018-06-23T11:05:50.681Z,2.40
2018-06-23T11:06:50.653Z,2.50
2018-06-23T11:07:50.645Z,2.20
2018-06-23T11:08:50.647Z,2.20
2018-06-23T11:09:50.629Z,2.60
2018-06-23T11:10:50.633Z,2.40
2018-06-23T11:11:50.611Z,2.40
2018-06-23T11:12:50.652Z,2.60
2018-06-23T11:13:50.581Z,2.50
2018-06-23T11:14:50.572Z,2.50
2018-06-23T11:15:50.595Z,2.30
2018-06-23T11:16:50.549Z,2.60
2018-06-23T11:17:50.567Z,2.90
2018-06-23T11:18:50.523Z,2.40
2018-06-23T11:19:50.525Z,2.40
2018-06-23T11:20:50.533Z,2.80
2018-06-23T11:21:50.498Z,2.20
2018-06-23T11:22:50.488Z,2.50
2018-06-23T11:23:50.474Z,2.50
2018-06-23T11:24:50.467Z,2.80
2018-06-23T11:25:50.523Z,2.90
2018-06-23T11:26:50.476Z,2.80
2018-06-23T11:27:50.424Z,3.30
2018-06-23T11:28:50.414Z,2.80
2018-06-23T11:29:50.444Z,2.80
2018-06-23T11:30:50.409Z,3.10
2018-06-23T11:31:50.387Z,3.00
2018-06-23T11:32:50.386Z,2.80
2018-06-23T11:33:50.367Z,2.80
2018-06-23T11:34:50.356Z,2.90
2018-06-23T11:35:50.397Z,2.80
2018-06-23T11:36:50.334Z,2.80
2018-06-23T11:37:50.341Z,2.90
2018-06-23T11:38:50.307Z,2.70
2018-06-23T11:39:50.302Z,2.70
2018-06-23T11:40:50.292Z,2.60
2018-06-23T11:41:50.281Z,2.60
2018-06-23T11:42:50.286Z,2.70
2018-06-23T11:43:50.262Z,2.40
2018-06-23T11:44:50.250Z,2.20
2018-06-23T11:45:50.234Z,2.40
2018-06-23T11:46:50.250Z,2.70
2018-06-23T11:47:50.229Z,2.30
2018-06-23T11:48:50.214Z,2.50
2018-06-23T11:49:50.193Z,2.10
2018-06-23T11:50:50.205Z,2.70
2018-06-23T11:51:50.163Z,2.50
2018-06-23T11:52:50.175Z,2.70
2018-06-23T11:53:50.150Z,3.00
2018-06-23T11:54:50.141Z,2.80
2018-06-23T11:55:50.129Z,2.90
2018-06-23T11:56:50.118Z,2.80
2018-06-23T11:57:50.116Z,2.80
2018-06-23T11:58:50.095Z,2.80
2018-06-23T11:59:50.128Z,3.10
2018-06-23T12:00:50.067Z,2.80
2018-06-23T12:01:50.069Z,2.70
2018-06-23T12:02:50.062Z,3.10
2018-06-23T12:03:50.051Z,3.70
2018-06-23T12:04:50.024Z,2.90
2018-06-23T12:05:50.041Z,3.40
2018-06-23T12:06:50.011Z,3.40
2018-06-23T12:07:49.998Z,3.10
2018-06-23T12:08:49.982Z,3.30
2018-06-23T12:09:49.984Z,3.30
2018-06-23T12:10:49.976Z,2.90
2018-06-23T12:11:49.945Z,3.00
2018-06-23T12:12:49.937Z,3.10
2018-06-23T12:13:49.932Z,3.20
2018-06-23T12:14:49.936Z,3.00
2018-06-23T12:15:49.910Z,3.00
2018-06-23T12:16:49.902Z,2.90
2018-06-23T12:17:49.897Z,2.60
2018-06-23T12:18:49.869Z,2.70
2018-06-23T12:19:49.881Z,2.50
2018-06-23T12:20:49.853Z,2.40
2018-06-23T12:21:49.838Z,2.40
2018-06-23T12:22:49.856Z,2.50
2018-06-23T12:23:49.814Z,2.70
2018-06-23T12:24:49.838Z,2.40
2018-06-23T12:25:49.813Z,2.30
2018-06-23T12:26:49.795Z,1.90
2018-06-23T12:27:49.781Z,2.20
2018-06-23T12:28:49.767Z,2.20
2018-06-23T12:29:49.775Z,2.50
2018-06-23T12:30:49.753Z,2.40
2018-06-23T12:31:49.736Z,2.30
2018-06-23T12:32:49.732Z,2.50
2018-06-23T12:33:49.708Z,2.60
2018-06-23T12:34:49.705Z,2.30
2018-06-23T12:35:49.693Z,2.20
2018-06-23T12:36:49.692Z,2.00
2018-06-23T12:37:49.666Z,2.00
2018-06-23T12:38:49.666Z,2.10
2018-06-23T12:39:49.645Z,2.20
2018-06-23T12:40:49.633Z,2.10
2018-06-23T12:41:49.664Z,2.40
2018-06-23T12:42:49.605Z,1.90
2018-06-23T12:43:49.597Z,2.40
2018-06-23T12:44:49.591Z,2.40
2018-06-23T12:45:49.580Z,2.40
2018-06-23T12:46:49.573Z,2.60
2018-06-23T12:47:49.575Z,1.90
2018-06-23T12:48:49.545Z,2.20
2018-06-23T12:49:49.531Z,2.30
2018-06-23T12:50:49.518Z,2.10
2018-06-23T12:51:49.529Z,2.30
2018-06-23T12:52:49.503Z,1.90
2018-06-23T12:53:49.504Z,1.90
2018-06-23T12:54:49.472Z,2.00
2018-06-23T12:55:49.461Z,2.10
2018-06-23T12:56:49.458Z,2.40
2018-06-23T12:57:49.448Z,2.00
2018-06-23T12:58:49.438Z,2.00
2018-06-23T12:59:49.439Z,2.30
2018-06-23T13:00:49.411Z,1.90
2018-06-23T13:01:49.412Z,2.60
2018-06-23T13:02:49.385Z,2.50
2018-06-23T13:03:49.373Z,2.40
2018-06-23T13:04:49.406Z,2.70
2018-06-23T13:05:49.359Z,2.70
2018-06-23T13:06:49.349Z,2.70
2018-06-23T13:07:49.330Z,2.30
2018-06-23T13:08:49.322Z,2.40
2018-06-23T13:09:49.327Z,2.10
2018-06-23T13:10:49.309Z,2.50
2018-06-23T13:11:49.294Z,2.50
2018-06-23T13:12:49.280Z,2.60
2018-06-23T13:13:49.270Z,2.40
2018-06-23T13:14:49.252Z,2.10
2018-06-23T13:15:49.255Z,2.20
2018-06-23T13:16:49.243Z,2.30
2018-06-23T13:17:49.227Z,2.30
2018-06-23T13:18:49.231Z,2.30
2018-06-23T13:19:49.214Z,2.50
2018-06-23T13:20:49.207Z,2.20
2018-06-23T13:21:49.178Z,1.90
2018-06-23T13:22:49.169Z,2.10
2018-06-23T13:23:49.174Z,2.10
2018-06-23T13:24:49.174Z,2.00
2018-06-23T13:25:49.135Z,1.80
2018-06-23T13:26:49.130Z,2.10
2018-06-23T13:27:49.109Z,1.80
2018-06-23T13:28:49.102Z,1.70
2018-06-23T13:29:49.140Z,2.20
2018-06-23T13:30:49.086Z,2.10
2018-06-23T13:31:49.089Z,2.00
2018-06-23T13:32:49.062Z,1.90
2018-06-23T13:33:49.061Z,1.80
2018-06-23T13:34:49.085Z,1.90
2018-06-23T13:35:49.024Z,1.80
2018-06-23T13:36:49.033Z,2.00
2018-06-23T13:37:49.020Z,2.10
2018-06-23T13:38:48.999Z,2.10
2018-06-23T13:39:48.983Z,2.10
2018-06-23T13:40:48.985Z,1.90
2018-06-23T13:41:48.965Z,1.90
2018-06-23T13:42:48.970Z,2.10
2018-06-23T13:43:48.954Z,1.70
2018-06-23T13:44:48.933Z,1.70
2018-06-23T13:45:48.921Z,1.90
2018-06-23T13:46:48.907Z,1.70
2018-06-23T13:47:48.925Z,1.80
2018-06-23T13:48:48.893Z,1.80
2018-06-23T13:49:48.877Z,1.80
2018-06-23T13:50:48.873Z,2.90
2018-06-23T13:51:48.860Z,1.90